Time;durP1;ratioP1;P1;durP2;ratioP2;P2;SDS_P1;SDS_P2;PMS_P1;PMS_P2;Temp;Humidity;BMP_temperature;BMP_pressure;BME280_temperature;BME280_humidity;BME280_pressure;Samples;Min_cycle;Max_cycle;Signal;HPM_P1;HPM_P2
2023/12/11 00:00:02;;;;;;;44.78;21.50;;;;;;;;;;1054138;28;23819;-68
2023/12/11 00:00:33;;;;;;;44.55;21.05;;;;;;;;;;1054172;28;20040;-68
2023/12/11 00:01:31;;;;;;;40.15;20.17;;;;;;;;;;1048841;28;20051;-68
2023/12/11 00:02:02;;;;;;;40.05;19.25;;;;;;;;;;1048543;28;20048;-68
2023/12/11 00:02:32;;;;;;;36.63;19.33;;;;;;;;;;1049523;28;20040;-68
2023/12/11 00:03:03;;;;;;;36.38;20.50;;;;;;;;;;1049757;28;20117;-69
2023/12/11 00:03:34;;;;;;;39.75;21.20;;;;;;;;;;1049260;28;20718;-68
2023/12/11 00:04:05;;;;;;;39.85;21.23;;;;;;;;;;1049770;28;20048;-68
2023/12/11 00:04:35;;;;;;;40.58;21.10;;;;;;;;;;1054516;28;20044;-68
2023/12/11 00:05:06;;;;;;;40.47;20.80;;;;;;;;;;1051870;28;20047;-68
2023/12/11 00:05:39;;;;;;;42.60;21.58;;;;;;;;;;1049053;28;20059;-68
2023/12/11 00:06:10;;;;;;;44.20;21.10;;;;;;;;;;1048481;28;20074;-68
2023/12/11 00:06:41;;;;;;;41.60;19.67;;;;;;;;;;1050184;28;20106;-68
2023/12/11 00:07:12;;;;;;;45.80;21.15;;;;;;;;;;1050386;28;20111;-68
2023/12/11 00:07:43;;;;;;;39.20;20.92;;;;;;;;;;1049838;28;20040;-69
2023/12/11 00:08:13;;;;;;;46.40;21.08;;;;;;;;;;1050924;28;20052;-68
2023/12/11 00:08:44;;;;;;;42.10;20.35;;;;;;;;;;1048519;28;20044;-68
2023/12/11 00:09:14;;;;;;;41.03;19.85;;;;;;;;;;1048446;28;20110;-68
2023/12/11 00:09:45;;;;;;;39.47;20.25;;;;;;;;;;1048541;28;20036;-68
2023/12/11 00:10:16;;;;;;;41.65;20.90;;;;;;;;;;1049504;28;20625;-68
2023/12/11 00:10:46;;;;;;;39.78;20.48;;;;;;;;;;1046731;28;20052;-68
2023/12/11 00:11:17;;;;;;;37.85;19.95;;;;;;;;;;1050199;28;20680;-68
2023/12/11 00:11:47;;;;;;;47.42;21.80;;;;;;;;;;1047167;28;20391;-68
2023/12/11 00:12:18;;;;;;;41.67;20.58;;;;;;;;;;1049274;28;20051;-68
2023/12/11 00:12:48;;;;;;;42.53;20.25;;;;;;;;;;1049199;28;20047;-68
2023/12/11 00:13:19;;;;;;;42.97;19.92;;;;;;;;;;1047026;28;20048;-68
2023/12/11 00:13:49;;;;;;;41.00;21.00;;;;;;;;;;1049455;28;20075;-68
2023/12/11 00:14:20;;;;;;;44.67;20.02;;;;;;;;;;1049843;28;20051;-68
2023/12/11 00:14:51;;;;;;;34.88;19.73;;;;;;;;;;1048767;28;20036;-68
2023/12/11 00:15:21;;;;;;;42.88;21.23;;;;;;;;;;1047758;28;20045;-68
2023/12/11 00:15:52;;;;;;;40.88;20.45;;;;;;;;;;1050283;28;20040;-68
2023/12/11 00:16:23;;;;;;;43.10;19.48;;;;;;;;;;1049779;28;20052;-68
2023/12/11 00:16:53;;;;;;;38.45;20.33;;;;;;;;;;1050019;28;20452;-68
2023/12/11 00:17:24;;;;;;;47.28;21.02;;;;;;;;;;1051155;28;20040;-68
2023/12/11 00:17:54;;;;;;;44.78;20.50;;;;;;;;;;1049264;28;20075;-68
2023/12/11 00:18:25;;;;;;;43.28;20.45;;;;;;;;;;1049442;28;20644;-68
2023/12/11 00:18:57;;;;;;;39.10;20.50;;;;;;;;;;1047867;28;20040;-68
2023/12/11 00:19:27;;;;;;;41.40;20.15;;;;;;;;;;1053603;28;20505;-68
2023/12/11 00:19:58;;;;;;;37.65;19.73;;;;;;;;;;1053764;28;20523;-68
2023/12/11 00:20:28;;;;;;;38.15;20.15;;;;;;;;;;1051853;28;20749;-68
2023/12/11 00:21:00;;;;;;;41.75;20.15;;;;;;;;;;1047672;28;20165;-68
2023/12/11 00:21:30;;;;;;;42.90;19.45;;;;;;;;;;1048693;28;20079;-68
2023/12/11 00:22:01;;;;;;;41.22;20.05;;;;;;;;;;1048579;28;20043;-68
2023/12/11 00:22:32;;;;;;;39.83;19.10;;;;;;;;;;1049399;28;20438;-68
2023/12/11 00:23:02;;;;;;;44.97;20.40;;;;;;;;;;1048732;28;20443;-67
2023/12/11 00:23:33;;;;;;;41.15;20.27;;;;;;;;;;1050391;28;20048;-68
2023/12/11 00:24:03;;;;;;;36.20;18.83;;;;;;;;;;1048554;28;20043;-67
2023/12/11 00:24:34;;;;;;;39.22;20.50;;;;;;;;;;1050030;28;20055;-68
2023/12/11 00:25:05;;;;;;;41.63;20.13;;;;;;;;;;1048111;28;20052;-68
2023/12/11 00:25:37;;;;;;;42.78;18.67;;;;;;;;;;1049546;28;21757;-68
2023/12/11 00:26:08;;;;;;;43.20;19.83;;;;;;;;;;1050100;28;20051;-67
2023/12/11 00:26:39;;;;;;;41.70;20.80;;;;;;;;;;1049283;28;20048;-68
2023/12/11 00:27:11;;;;;;;43.60;19.65;;;;;;;;;;1048436;28;20061;-68
2023/12/11 00:27:42;;;;;;;38.65;18.88;;;;;;;;;;1050297;28;20160;-68
2023/12/11 00:28:13;;;;;;;40.92;20.05;;;;;;;;;;1044593;28;20044;-68
2023/12/11 00:28:47;;;;;;;37.88;19.23;;;;;;;;;;1044246;28;20059;-68
2023/12/11 00:29:17;;;;;;;39.45;19.48;;;;;;;;;;1044753;28;20091;-68
2023/12/11 00:29:48;;;;;;;39.67;19.00;;;;;;;;;;1045468;28;20106;-68
2023/12/11 00:30:19;;;;;;;37.90;18.65;;;;;;;;;;1045885;28;20036;-68
2023/12/11 00:30:49;;;;;;;39.83;20.48;;;;;;;;;;1044342;28;20181;-68
2023/12/11 00:31:20;;;;;;;44.30;20.30;;;;;;;;;;1045929;28;20052;-68
2023/12/11 00:31:50;;;;;;;44.83;20.05;;;;;;;;;;1046196;28;20036;-68
2023/12/11 00:32:20;;;;;;;39.75;19.50;;;;;;;;;;1045247;28;20048;-68
2023/12/11 00:32:52;;;;;;;36.85;18.88;;;;;;;;;;1046106;28;20052;-68
2023/12/11 00:33:23;;;;;;;36.42;18.52;;;;;;;;;;1049279;28;20102;-68
2023/12/11 00:33:54;;;;;;;38.72;19.13;;;;;;;;;;1050133;28;20180;-68
2023/12/11 00:34:24;;;;;;;33.95;17.80;;;;;;;;;;1049406;28;20048;-68
2023/12/11 00:34:55;;;;;;;35.85;18.80;;;;;;;;;;1048823;28;20823;-68
2023/12/11 00:35:25;;;;;;;41.63;19.50;;;;;;;;;;1050626;28;20125;-68
2023/12/11 00:35:56;;;;;;;37.90;18.80;;;;;;;;;;1050365;28;20458;-68
2023/12/11 00:36:27;;;;;;;41.22;19.13;;;;;;;;;;1049402;28;20437;-68
2023/12/11 00:36:57;;;;;;;35.45;19.00;;;;;;;;;;1049703;28;20870;-68
2023/12/11 00:37:28;;;;;;;35.83;19.05;;;;;;;;;;1049167;28;20048;-68
2023/12/11 00:37:58;;;;;;;35.70;18.98;;;;;;;;;;1048842;28;20052;-68
2023/12/11 00:38:29;;;;;;;36.13;19.40;;;;;;;;;;1049765;28;20052;-68
2023/12/11 00:39:00;;;;;;;33.28;18.70;;;;;;;;;;1046875;28;20059;-68
2023/12/11 00:39:30;;;;;;;36.97;18.60;;;;;;;;;;1050519;28;20193;-68
2023/12/11 00:40:01;;;;;;;36.50;17.88;;;;;;;;;;1046791;28;20078;-68
2023/12/11 00:40:31;;;;;;;44.30;19.70;;;;;;;;;;1045149;28;20044;-68
2023/12/11 00:41:02;;;;;;;36.13;18.65;;;;;;;;;;1044502;28;20056;-68
2023/12/11 00:41:32;;;;;;;33.95;16.80;;;;;;;;;;1047157;28;20085;-68
2023/12/11 00:42:03;;;;;;;41.40;19.38;;;;;;;;;;1045432;28;20561;-68
2023/12/11 00:42:33;;;;;;;33.72;17.98;;;;;;;;;;1045077;28;20694;-68
2023/12/11 00:43:04;;;;;;;39.47;18.50;;;;;;;;;;1048519;28;20522;-68
2023/12/11 00:43:34;;;;;;;43.50;19.23;;;;;;;;;;1049608;28;20040;-68
2023/12/11 00:44:05;;;;;;;41.38;17.80;;;;;;;;;;1048378;28;20127;-68
2023/12/11 00:44:37;;;;;;;38.83;18.52;;;;;;;;;;1050364;28;20473;-68
2023/12/11 00:45:12;;;;;;;31.55;16.95;;;;;;;;;;1048123;28;20121;-67
2023/12/11 00:45:43;;;;;;;37.95;17.70;;;;;;;;;;1048191;28;20618;-68
2023/12/11 00:46:14;;;;;;;41.80;19.75;;;;;;;;;;1050625;28;20360;-68
2023/12/11 00:46:45;;;;;;;36.00;17.13;;;;;;;;;;1049911;28;20044;-67
2023/12/11 00:47:15;;;;;;;37.75;18.23;;;;;;;;;;1048499;28;20048;-68
2023/12/11 00:47:46;;;;;;;32.25;17.65;;;;;;;;;;1048606;28;20573;-68
2023/12/11 00:48:16;;;;;;;33.50;18.83;;;;;;;;;;1050912;28;20499;-68
2023/12/11 00:48:47;;;;;;;31.83;17.75;;;;;;;;;;1049074;28;20499;-68
2023/12/11 00:49:18;;;;;;;36.58;18.67;;;;;;;;;;1049007;28;20044;-68
2023/12/11 00:49:48;;;;;;;34.30;17.77;;;;;;;;;;1050179;28;20058;-68
2023/12/11 00:50:19;;;;;;;36.53;17.92;;;;;;;;;;1050375;28;20051;-67
2023/12/11 00:50:50;;;;;;;35.90;17.38;;;;;;;;;;1047061;28;20052;-67
2023/12/11 00:51:20;;;;;;;40.50;18.75;;;;;;;;;;1048455;28;20559;-68
2023/12/11 00:51:52;;;;;;;37.42;17.70;;;;;;;;;;1050502;28;20399;-68
2023/12/11 00:52:23;;;;;;;33.42;17.55;;;;;;;;;;1049245;28;20044;-68
2023/12/11 00:52:53;;;;;;;36.40;18.10;;;;;;;;;;1048473;28;20048;-68
2023/12/11 00:53:24;;;;;;;33.60;17.20;;;;;;;;;;1049473;28;20044;-68
2023/12/11 00:53:55;;;;;;;36.70;18.20;;;;;;;;;;1050196;28;20070;-68
2023/12/11 00:54:26;;;;;;;35.03;17.75;;;;;;;;;;1050089;28;20040;-68
2023/12/11 00:54:56;;;;;;;43.72;18.88;;;;;;;;;;1050764;28;20043;-68
2023/12/11 00:55:27;;;;;;;35.00;18.33;;;;;;;;;;1049849;28;20464;-68
2023/12/11 00:55:57;;;;;;;32.17;18.05;;;;;;;;;;1050005;28;20478;-68
2023/12/11 00:56:28;;;;;;;40.47;18.15;;;;;;;;;;1048944;28;20504;-68
2023/12/11 00:56:58;;;;;;;32.72;17.52;;;;;;;;;;1050193;28;20067;-68
2023/12/11 00:57:29;;;;;;;31.30;18.70;;;;;;;;;;1050810;28;20062;-68
2023/12/11 00:58:00;;;;;;;37.40;17.35;;;;;;;;;;1048930;28;20377;-68
2023/12/11 00:58:30;;;;;;;42.85;18.20;;;;;;;;;;1049538;28;20040;-68
2023/12/11 00:59:01;;;;;;;35.53;18.27;;;;;;;;;;1047205;28;20814;-68
2023/12/11 00:59:31;;;;;;;35.28;18.58;;;;;;;;;;1045331;28;20076;-68
2023/12/11 01:00:03;;;;;;;37.85;16.38;;;;;;;;;;1045288;28;20059;-68
2023/12/11 01:00:33;;;;;;;39.72;18.08;;;;;;;;;;1043829;28;20052;-68
2023/12/11 01:01:04;;;;;;;38.35;18.30;;;;;;;;;;1047731;28;20134;-68
2023/12/11 01:01:34;;;;;;;39.72;17.67;;;;;;;;;;1049410;28;20100;-68
2023/12/11 01:02:05;;;;;;;39.03;18.30;;;;;;;;;;1049435;28;20193;-68
2023/12/11 01:02:36;;;;;;;38.30;17.38;;;;;;;;;;1050699;28;20056;-68
2023/12/11 01:03:06;;;;;;;39.42;17.67;;;;;;;;;;1049048;28;20040;-68
2023/12/11 01:03:38;;;;;;;37.42;18.13;;;;;;;;;;1049399;28;20051;-68
2023/12/11 01:04:08;;;;;;;34.10;18.35;;;;;;;;;;1045731;28;20113;-68
2023/12/11 01:04:39;;;;;;;38.30;18.33;;;;;;;;;;1046578;28;20158;-67
2023/12/11 01:05:10;;;;;;;34.53;18.95;;;;;;;;;;1045994;28;20052;-68
2023/12/11 01:05:41;;;;;;;38.67;18.13;;;;;;;;;;1045609;28;20052;-68
2023/12/11 01:06:12;;;;;;;35.72;17.40;;;;;;;;;;1045468;28;20393;-68
2023/12/11 01:06:43;;;;;;;42.05;17.88;;;;;;;;;;1044643;28;20079;-68
2023/12/11 01:07:13;;;;;;;40.75;17.83;;;;;;;;;;1050926;28;20063;-68
2023/12/11 01:07:44;;;;;;;32.85;17.25;;;;;;;;;;1048564;28;20723;-68
2023/12/11 01:08:14;;;;;;;38.50;17.45;;;;;;;;;;1050337;28;20655;-68
2023/12/11 01:08:45;;;;;;;35.03;17.88;;;;;;;;;;1049659;28;20118;-68
2023/12/11 01:09:16;;;;;;;32.15;16.13;;;;;;;;;;1049615;28;20048;-68
2023/12/11 01:09:46;;;;;;;36.30;17.60;;;;;;;;;;1049137;28;20063;-68
2023/12/11 01:10:17;;;;;;;38.35;17.75;;;;;;;;;;1047856;28;20159;-68
2023/12/11 01:10:47;;;;;;;36.92;17.48;;;;;;;;;;1049496;28;20051;-68
2023/12/11 01:11:18;;;;;;;37.50;17.45;;;;;;;;;;1047286;28;20629;-68
2023/12/11 01:11:48;;;;;;;28.92;16.60;;;;;;;;;;1048549;28;20052;-69
2023/12/11 01:12:19;;;;;;;32.70;16.92;;;;;;;;;;1049319;28;20114;-68
2023/12/11 01:12:50;;;;;;;40.17;17.42;;;;;;;;;;1049679;28;20040;-68
2023/12/11 01:13:20;;;;;;;39.05;17.45;;;;;;;;;;1048376;28;20048;-68
2023/12/11 01:13:51;;;;;;;38.47;16.33;;;;;;;;;;1048028;28;20055;-68
2023/12/11 01:14:21;;;;;;;33.95;17.27;;;;;;;;;;1049020;28;20044;-67
2023/12/11 01:14:52;;;;;;;35.22;17.55;;;;;;;;;;1048506;28;20040;-67
2023/12/11 01:15:23;;;;;;;33.75;16.17;;;;;;;;;;1050258;28;20052;-68
2023/12/11 01:15:53;;;;;;;41.15;17.30;;;;;;;;;;1049369;28;20491;-68
2023/12/11 01:16:24;;;;;;;33.00;17.00;;;;;;;;;;1050233;28;20067;-67
2023/12/11 01:16:55;;;;;;;37.08;17.50;;;;;;;;;;1047569;28;20106;-67
2023/12/11 01:17:25;;;;;;;37.13;17.70;;;;;;;;;;1049786;28;20047;-68
2023/12/11 01:17:56;;;;;;;35.75;17.50;;;;;;;;;;1048844;28;20054;-68
2023/12/11 01:18:26;;;;;;;34.85;18.48;;;;;;;;;;1048657;28;20074;-68
2023/12/11 01:18:57;;;;;;;35.50;17.48;;;;;;;;;;1048954;28;20042;-68
2023/12/11 01:19:28;;;;;;;40.03;17.90;;;;;;;;;;1049293;28;20504;-68
2023/12/11 01:19:58;;;;;;;32.55;18.10;;;;;;;;;;1049975;28;20044;-68
2023/12/11 01:20:29;;;;;;;39.53;17.42;;;;;;;;;;1049070;28;20042;-67
2023/12/11 01:20:59;;;;;;;31.90;18.13;;;;;;;;;;1049878;28;20411;-68
2023/12/11 01:21:30;;;;;;;36.60;16.98;;;;;;;;;;1048772;28;20052;-68
2023/12/11 01:22:00;;;;;;;33.67;16.83;;;;;;;;;;1047631;28;20135;-68
2023/12/11 01:22:31;;;;;;;38.17;18.95;;;;;;;;;;1048953;28;20040;-68
2023/12/11 01:23:02;;;;;;;41.33;18.30;;;;;;;;;;1049493;28;24771;-68
2023/12/11 01:23:32;;;;;;;32.15;18.35;;;;;;;;;;1049600;28;20070;-68
2023/12/11 01:24:03;;;;;;;30.48;16.08;;;;;;;;;;1046961;28;20094;-68
2023/12/11 01:24:34;;;;;;;34.67;17.63;;;;;;;;;;1050121;28;20032;-68
2023/12/11 01:25:05;;;;;;;39.28;17.27;;;;;;;;;;1047660;28;20102;-68
2023/12/11 01:25:35;;;;;;;35.97;17.48;;;;;;;;;;1052082;28;20048;-67
2023/12/11 01:26:06;;;;;;;34.80;17.90;;;;;;;;;;1052381;28;20044;-68
2023/12/11 01:26:38;;;;;;;39.67;17.80;;;;;;;;;;1054851;28;20130;-68
2023/12/11 01:27:08;;;;;;;34.20;16.73;;;;;;;;;;1052496;28;20039;-68
2023/12/11 01:27:39;;;;;;;32.28;16.95;;;;;;;;;;1048641;28;20044;-68
2023/12/11 01:28:09;;;;;;;38.95;17.60;;;;;;;;;;1050085;28;20063;-68
2023/12/11 01:28:40;;;;;;;32.88;16.25;;;;;;;;;;1047318;28;20044;-68
2023/12/11 01:29:11;;;;;;;35.85;16.23;;;;;;;;;;1049574;28;20055;-68
2023/12/11 01:29:41;;;;;;;34.97;15.95;;;;;;;;;;1048013;28;20048;-68
2023/12/11 01:30:12;;;;;;;33.17;16.98;;;;;;;;;;1047532;28;20630;-68
2023/12/11 01:30:42;;;;;;;36.28;16.88;;;;;;;;;;1049427;28;20451;-68
2023/12/11 01:31:13;;;;;;;31.40;17.23;;;;;;;;;;1048458;28;20400;-68
2023/12/11 01:31:43;;;;;;;35.45;17.27;;;;;;;;;;1048716;28;20036;-68
2023/12/11 01:32:14;;;;;;;35.67;16.45;;;;;;;;;;1049657;28;20161;-68
2023/12/11 01:32:45;;;;;;;34.63;17.98;;;;;;;;;;1048504;28;22408;-68
2023/12/11 01:33:15;;;;;;;34.15;15.70;;;;;;;;;;1048945;28;20060;-68
2023/12/11 01:33:46;;;;;;;31.85;16.67;;;;;;;;;;1048504;28;20183;-68
2023/12/11 01:34:16;;;;;;;35.20;17.73;;;;;;;;;;1049888;28;20718;-68
2023/12/11 01:34:47;;;;;;;33.22;16.83;;;;;;;;;;1050332;28;20043;-68
2023/12/11 01:35:17;;;;;;;33.63;17.55;;;;;;;;;;1048711;28;20048;-68
2023/12/11 01:35:48;;;;;;;37.78;16.90;;;;;;;;;;1049760;28;20415;-68
2023/12/11 01:36:19;;;;;;;33.22;16.85;;;;;;;;;;1049459;28;20048;-68
2023/12/11 01:36:49;;;;;;;36.28;16.75;;;;;;;;;;1049495;28;20772;-68
2023/12/11 01:37:20;;;;;;;32.72;15.95;;;;;;;;;;1050140;28;20040;-69
2023/12/11 01:37:51;;;;;;;31.27;17.55;;;;;;;;;;1047879;28;20044;-68
2023/12/11 01:38:21;;;;;;;31.27;15.73;;;;;;;;;;1049835;28;20123;-68
2023/12/11 01:38:52;;;;;;;29.88;15.85;;;;;;;;;;1049939;28;20040;-69
2023/12/11 01:39:22;;;;;;;29.95;16.55;;;;;;;;;;1047851;28;20653;-68
2023/12/11 01:39:53;;;;;;;30.02;16.27;;;;;;;;;;1049531;28;20052;-68
2023/12/11 01:40:23;;;;;;;36.35;17.98;;;;;;;;;;1050069;28;20123;-68
2023/12/11 01:40:54;;;;;;;35.65;16.85;;;;;;;;;;1048362;28;20632;-68
2023/12/11 01:41:24;;;;;;;33.42;16.45;;;;;;;;;;1049102;28;20036;-68
2023/12/11 01:41:57;;;;;;;33.30;16.10;;;;;;;;;;1049365;28;20119;-68
2023/12/11 01:42:27;;;;;;;36.38;17.10;;;;;;;;;;1048373;28;20060;-68
2023/12/11 01:43:30;;;;;;;31.83;15.95;;;;;;;;;;1049878;28;20044;-68
2023/12/11 01:44:01;;;;;;;32.28;15.40;;;;;;;;;;1048054;28;20062;-68
2023/12/11 01:44:32;;;;;;;36.83;15.93;;;;;;;;;;1049988;28;20097;-69
2023/12/11 01:45:03;;;;;;;32.50;15.10;;;;;;;;;;1047980;28;20047;-68
2023/12/11 01:45:33;;;;;;;33.20;16.60;;;;;;;;;;1049863;28;20043;-68
2023/12/11 01:46:13;;;;;;;31.67;16.15;;;;;;;;;;1050350;28;20078;-68
2023/12/11 01:46:44;;;;;;;29.13;15.25;;;;;;;;;;1050136;28;20052;-68
2023/12/11 01:47:15;;;;;;;32.60;16.08;;;;;;;;;;1047563;28;20426;-68
2023/12/11 01:47:45;;;;;;;33.40;16.38;;;;;;;;;;1049471;28;20435;-68
2023/12/11 01:48:16;;;;;;;33.65;16.48;;;;;;;;;;1046460;28;20040;-68
2023/12/11 01:48:49;;;;;;;34.10;16.83;;;;;;;;;;1049496;28;20052;-69
2023/12/11 01:49:19;;;;;;;33.45;16.38;;;;;;;;;;1049944;28;20774;-68
2023/12/11 01:49:50;;;;;;;26.70;15.70;;;;;;;;;;1047110;28;20547;-68
2023/12/11 01:50:21;;;;;;;33.15;16.20;;;;;;;;;;1048499;28;20047;-68
2023/12/11 01:50:52;;;;;;;37.47;16.10;;;;;;;;;;1048404;28;20043;-68
2023/12/11 01:51:22;;;;;;;29.20;15.88;;;;;;;;;;1048905;28;20040;-68
2023/12/11 01:51:53;;;;;;;31.38;15.68;;;;;;;;;;1048926;28;20146;-69
2023/12/11 01:52:24;;;;;;;33.45;17.05;;;;;;;;;;1049934;28;20791;-68
2023/12/11 01:52:55;;;;;;;31.85;16.02;;;;;;;;;;1048102;28;20052;-68
2023/12/11 01:53:27;;;;;;;34.88;15.93;;;;;;;;;;1048355;28;20066;-68
2023/12/11 01:53:58;;;;;;;33.05;16.35;;;;;;;;;;1049551;28;20520;-68
2023/12/11 01:54:30;;;;;;;33.17;17.25;;;;;;;;;;1049373;28;20160;-69
2023/12/11 01:55:02;;;;;;;33.10;16.00;;;;;;;;;;1050468;28;20051;-68
2023/12/11 01:55:33;;;;;;;29.08;14.93;;;;;;;;;;1049177;28;20126;-68
2023/12/11 01:56:04;;;;;;;33.65;15.13;;;;;;;;;;1049124;28;20054;-68
2023/12/11 01:56:35;;;;;;;37.05;15.75;;;;;;;;;;1048901;28;20095;-68
2023/12/11 01:57:07;;;;;;;38.28;16.38;;;;;;;;;;1048860;28;20070;-68
2023/12/11 01:57:38;;;;;;;31.98;16.33;;;;;;;;;;1049347;28;20040;-68
2023/12/11 01:58:08;;;;;;;32.00;16.25;;;;;;;;;;1050315;28;20437;-68
2023/12/11 01:58:39;;;;;;;30.13;16.00;;;;;;;;;;1049831;28;20480;-68
2023/12/11 01:59:12;;;;;;;31.27;15.75;;;;;;;;;;1049798;28;20051;-68
2023/12/11 01:59:42;;;;;;;33.95;15.73;;;;;;;;;;1047129;28;20048;-68
2023/12/11 02:00:13;;;;;;;34.45;16.60;;;;;;;;;;1049236;28;21918;-68
2023/12/11 02:00:44;;;;;;;36.38;14.60;;;;;;;;;;1049238;28;20331;-69
2023/12/11 02:01:16;;;;;;;34.15;14.88;;;;;;;;;;1049397;28;20048;-68
2023/12/11 02:01:47;;;;;;;33.33;15.80;;;;;;;;;;1049885;28;20103;-69
2023/12/11 02:02:20;;;;;;;32.58;15.40;;;;;;;;;;1048735;28;20036;-69
2023/12/11 02:02:50;;;;;;;32.63;15.27;;;;;;;;;;1049436;28;20036;-67
2023/12/11 02:03:22;;;;;;;33.95;16.27;;;;;;;;;;1049112;28;20131;-68
2023/12/11 02:03:52;;;;;;;34.42;15.32;;;;;;;;;;1049966;28;20123;-69
2023/12/11 02:04:24;;;;;;;32.08;15.88;;;;;;;;;;1047564;28;20042;-68
2023/12/11 02:04:54;;;;;;;32.05;15.98;;;;;;;;;;1048402;28;20051;-68
2023/12/11 02:05:25;;;;;;;29.13;15.40;;;;;;;;;;1045814;28;20048;-68
2023/12/11 02:05:55;;;;;;;34.05;15.35;;;;;;;;;;1045534;28;20082;-68
2023/12/11 02:06:26;;;;;;;30.30;15.10;;;;;;;;;;1045651;28;20081;-68
2023/12/11 02:06:57;;;;;;;32.92;16.10;;;;;;;;;;1043241;28;20064;-69
2023/12/11 02:07:28;;;;;;;33.85;15.05;;;;;;;;;;1050163;28;20499;-68
2023/12/11 02:07:59;;;;;;;32.90;15.85;;;;;;;;;;1044515;28;20115;-68
2023/12/11 02:08:29;;;;;;;31.60;15.88;;;;;;;;;;1042208;28;20103;-68
2023/12/11 02:09:00;;;;;;;35.22;15.82;;;;;;;;;;1044791;28;20078;-68
2023/12/11 02:09:30;;;;;;;33.38;14.82;;;;;;;;;;1045781;28;20040;-69
2023/12/11 02:10:01;;;;;;;35.53;15.45;;;;;;;;;;1049623;28;20036;-68
2023/12/11 02:10:32;;;;;;;29.02;14.88;;;;;;;;;;1048884;28;20043;-68
2023/12/11 02:11:03;;;;;;;25.42;13.48;;;;;;;;;;1048847;28;20113;-68
2023/12/11 02:11:33;;;;;;;29.58;14.77;;;;;;;;;;1049455;28;20060;-68
2023/12/11 02:12:05;;;;;;;27.45;15.93;;;;;;;;;;1049756;28;20040;-69
2023/12/11 02:12:35;;;;;;;35.08;14.95;;;;;;;;;;1049663;28;20492;-68
2023/12/11 02:13:06;;;;;;;31.27;16.13;;;;;;;;;;1049901;28;20480;-68
2023/12/11 02:13:39;;;;;;;31.30;15.13;;;;;;;;;;1049517;28;20106;-68
2023/12/11 02:14:10;;;;;;;30.60;15.85;;;;;;;;;;1050439;28;20046;-68
2023/12/11 02:14:41;;;;;;;38.83;15.10;;;;;;;;;;1049109;28;20070;-69
2023/12/11 02:15:11;;;;;;;32.80;16.13;;;;;;;;;;1048375;28;20687;-68
2023/12/11 02:15:43;;;;;;;34.35;15.95;;;;;;;;;;1049222;28;20431;-68
2023/12/11 02:16:15;;;;;;;29.52;14.80;;;;;;;;;;1050872;28;20141;-68
2023/12/11 02:16:46;;;;;;;32.58;14.68;;;;;;;;;;1049200;28;20123;-68
2023/12/11 02:17:16;;;;;;;32.63;15.75;;;;;;;;;;1050125;28;20044;-68
2023/12/11 02:17:47;;;;;;;33.28;16.25;;;;;;;;;;1049505;28;20040;-68
2023/12/11 02:18:18;;;;;;;30.95;16.30;;;;;;;;;;1050921;28;20036;-68
2023/12/11 02:18:48;;;;;;;32.83;16.15;;;;;;;;;;1047733;28;20048;-69
2023/12/11 02:19:19;;;;;;;32.90;15.27;;;;;;;;;;1050029;28;20420;-69
2023/12/11 02:19:49;;;;;;;31.88;15.68;;;;;;;;;;1050260;28;20040;-68
2023/12/11 02:20:20;;;;;;;34.92;15.40;;;;;;;;;;1049508;28;20036;-68
2023/12/11 02:20:51;;;;;;;33.15;15.65;;;;;;;;;;1047410;28;20042;-69
2023/12/11 02:21:22;;;;;;;34.85;16.00;;;;;;;;;;1049787;28;20407;-68
2023/12/11 02:21:53;;;;;;;31.38;16.10;;;;;;;;;;1048664;28;20135;-68
2023/12/11 02:22:24;;;;;;;30.15;15.05;;;;;;;;;;1049379;28;20105;-68
2023/12/11 02:22:58;;;;;;;28.00;14.80;;;;;;;;;;1048560;28;20090;-69
2023/12/11 02:23:51;;;;;;;34.95;15.80;;;;;;;;;;1047433;28;20044;-68
2023/12/11 02:24:28;;;;;;;29.27;14.15;;;;;;;;;;1041604;28;20064;-68
2023/12/11 02:25:04;;;;;;;27.27;13.77;;;;;;;;;;1047233;28;20044;-68
2023/12/11 02:25:35;;;;;;;30.83;14.60;;;;;;;;;;1048035;28;20063;-69
2023/12/11 02:26:10;;;;;;;26.30;13.55;;;;;;;;;;1049357;28;20110;-68
2023/12/11 02:26:41;;;;;;;35.22;15.88;;;;;;;;;;1048048;28;20048;-68
2023/12/11 02:27:12;;;;;;;29.67;14.80;;;;;;;;;;1046304;28;20044;-68
2023/12/11 02:27:42;;;;;;;30.10;14.73;;;;;;;;;;1048655;28;20056;-68
2023/12/11 02:28:13;;;;;;;35.38;15.88;;;;;;;;;;1051015;28;20040;-68
2023/12/11 02:28:44;;;;;;;32.05;15.05;;;;;;;;;;1048175;28;20101;-68
2023/12/11 02:29:15;;;;;;;34.88;16.77;;;;;;;;;;1045363;28;20215;-68
2023/12/11 02:29:45;;;;;;;30.48;14.93;;;;;;;;;;1045316;28;20417;-69
2023/12/11 02:30:16;;;;;;;35.78;15.70;;;;;;;;;;1046615;28;20098;-68
2023/12/11 02:30:53;;;;;;;34.00;15.93;;;;;;;;;;1048355;28;20131;-68
2023/12/11 02:31:24;;;;;;;30.88;16.27;;;;;;;;;;1044043;28;20049;-69
2023/12/11 02:31:54;;;;;;;37.97;16.15;;;;;;;;;;1042971;28;20053;-68
2023/12/11 02:32:25;;;;;;;30.83;15.25;;;;;;;;;;1044631;28;20045;-68
2023/12/11 02:32:55;;;;;;;30.90;14.98;;;;;;;;;;1042788;28;20048;-68
2023/12/11 02:33:26;;;;;;;31.95;14.85;;;;;;;;;;1042721;28;20516;-68
2023/12/11 02:33:56;;;;;;;35.75;15.70;;;;;;;;;;1042219;28;20140;-68
2023/12/11 02:34:27;;;;;;;31.20;15.90;;;;;;;;;;1042221;28;20743;-68
2023/12/11 02:34:57;;;;;;;26.17;14.68;;;;;;;;;;1042643;28;20120;-68
2023/12/11 02:35:28;;;;;;;31.02;15.32;;;;;;;;;;1043163;28;20041;-68
2023/12/11 02:35:58;;;;;;;33.60;16.00;;;;;;;;;;1046734;28;20060;-68
2023/12/11 02:36:29;;;;;;;34.78;16.02;;;;;;;;;;1047534;28;20037;-68
2023/12/11 02:37:00;;;;;;;33.55;14.23;;;;;;;;;;1047952;28;20109;-68
2023/12/11 02:37:30;;;;;;;29.55;14.45;;;;;;;;;;1042307;28;20037;-68
2023/12/11 02:38:01;;;;;;;28.85;14.93;;;;;;;;;;1048993;28;20093;-68
2023/12/11 02:38:31;;;;;;;28.38;14.55;;;;;;;;;;1050072;28;20036;-68
2023/12/11 02:39:02;;;;;;;34.97;15.05;;;;;;;;;;1048690;28;20056;-67
2023/12/11 02:39:33;;;;;;;35.28;15.00;;;;;;;;;;1049647;28;20062;-68
2023/12/11 02:40:04;;;;;;;33.08;15.07;;;;;;;;;;1048469;28;20050;-68
2023/12/11 02:40:35;;;;;;;31.40;14.85;;;;;;;;;;1049161;28;20504;-68
2023/12/11 02:41:06;;;;;;;27.83;15.07;;;;;;;;;;1047456;28;20559;-68
2023/12/11 02:41:36;;;;;;;27.63;14.73;;;;;;;;;;1049618;28;20036;-68
2023/12/11 02:42:07;;;;;;;34.80;14.52;;;;;;;;;;1044848;28;21009;-68
2023/12/11 02:42:37;;;;;;;31.42;13.85;;;;;;;;;;1044466;28;20084;-68
2023/12/11 02:43:08;;;;;;;34.90;15.60;;;;;;;;;;1046659;28;20048;-68
2023/12/11 02:43:38;;;;;;;28.77;14.50;;;;;;;;;;1048302;28;20071;-68
2023/12/11 02:44:09;;;;;;;34.00;15.77;;;;;;;;;;1045946;28;20136;-68
2023/12/11 02:44:39;;;;;;;27.75;15.13;;;;;;;;;;1044856;28;20144;-68
2023/12/11 02:45:10;;;;;;;33.08;14.18;;;;;;;;;;1042110;28;20053;-68
2023/12/11 02:45:44;;;;;;;31.48;15.50;;;;;;;;;;1044676;28;20106;-68
2023/12/11 02:46:15;;;;;;;28.88;14.95;;;;;;;;;;1048191;28;20138;-68
2023/12/11 02:46:45;;;;;;;28.80;15.02;;;;;;;;;;1048816;28;20051;-68
2023/12/11 02:47:16;;;;;;;28.70;15.13;;;;;;;;;;1045679;28;20040;-68
2023/12/11 02:47:46;;;;;;;28.92;14.80;;;;;;;;;;1044319;28;20052;-68
2023/12/11 02:48:18;;;;;;;27.42;14.65;;;;;;;;;;1046444;28;20040;-68
2023/12/11 02:48:48;;;;;;;31.42;14.90;;;;;;;;;;1045054;28;20036;-69
2023/12/11 02:49:19;;;;;;;35.08;15.95;;;;;;;;;;1046496;28;20041;-69
2023/12/11 02:49:49;;;;;;;32.50;15.57;;;;;;;;;;1044164;28;20041;-68
2023/12/11 02:50:20;;;;;;;35.60;16.67;;;;;;;;;;1042604;28;20099;-68
2023/12/11 02:50:50;;;;;;;31.10;14.35;;;;;;;;;;1043097;28;20055;-68
2023/12/11 02:51:21;;;;;;;24.77;14.75;;;;;;;;;;1045502;28;20040;-69
2023/12/11 02:51:52;;;;;;;32.60;15.30;;;;;;;;;;1046457;28;20068;-68
2023/12/11 02:52:23;;;;;;;34.92;14.88;;;;;;;;;;1050734;28;20048;-69
2023/12/11 02:52:53;;;;;;;28.02;14.02;;;;;;;;;;1047884;28;20040;-68
2023/12/11 02:53:24;;;;;;;31.90;15.68;;;;;;;;;;1048659;28;20056;-68
2023/12/11 02:53:54;;;;;;;35.85;14.77;;;;;;;;;;1049840;28;20184;-68
2023/12/11 02:54:25;;;;;;;28.55;15.13;;;;;;;;;;1050307;28;20062;-69
2023/12/11 02:54:56;;;;;;;32.83;14.68;;;;;;;;;;1048065;28;20087;-68
2023/12/11 02:55:26;;;;;;;37.45;15.82;;;;;;;;;;1050243;28;20437;-68
2023/12/11 02:55:57;;;;;;;27.65;14.07;;;;;;;;;;1047644;28;20040;-68
2023/12/11 02:56:28;;;;;;;36.28;15.00;;;;;;;;;;1048475;28;20750;-68
2023/12/11 02:56:58;;;;;;;33.22;15.75;;;;;;;;;;1047718;28;20540;-68
2023/12/11 02:57:29;;;;;;;26.65;14.98;;;;;;;;;;1050059;28;20435;-68
2023/12/11 02:58:01;;;;;;;30.15;15.82;;;;;;;;;;1049321;28;20059;-68
2023/12/11 02:58:31;;;;;;;33.92;14.68;;;;;;;;;;1049839;28;20064;-69
2023/12/11 02:59:02;;;;;;;31.88;15.98;;;;;;;;;;1050502;28;20048;-68
2023/12/11 02:59:33;;;;;;;32.97;15.73;;;;;;;;;;1048922;28;20477;-69
2023/12/11 03:00:04;;;;;;;31.50;16.38;;;;;;;;;;1048543;28;20055;-68
2023/12/11 03:00:35;;;;;;;32.58;15.18;;;;;;;;;;1048056;28;20044;-69